Time;durP1;ratioP1;P1;durP2;ratioP2;P2;SDS_P1;SDS_P2;PMS_P1;PMS_P2;Temp;Humidity;BMP_temperature;BMP_pressure;BME280_temperature;BME280_humidity;BME280_pressure;Samples;Min_cycle;Max_cycle;Signal;HPM_P1;HPM_P2
2022/10/12 00:02:00;;;;;;;84.22;49.90;;;;;;;8.03;79.38;98119.67;1722700;81;27458;-86
2022/10/12 00:04:27;;;;;;;88.87;51.60;;;;;;;8.02;79.40;98123.88;1746216;81;26022;-86
2022/10/12 00:06:53;;;;;;;78.20;49.05;;;;;;;7.99;79.39;98127.76;1758011;81;25848;-86
2022/10/12 00:09:20;;;;;;;82.62;51.73;;;;;;;7.98;79.43;98133.31;1758148;81;26452;-86
2022/10/12 00:11:47;;;;;;;83.45;51.08;;;;;;;7.99;79.48;98124.23;1758225;81;25795;-85
2022/10/12 00:14:14;;;;;;;77.58;52.75;;;;;;;8.00;79.50;98132.13;1758112;81;27344;-85
2022/10/12 00:16:41;;;;;;;85.62;53.23;;;;;;;8.01;79.42;98127.08;1758108;81;25735;-85
2022/10/12 00:19:09;;;;;;;84.07;51.02;;;;;;;8.02;79.30;98124.72;1758097;81;25260;-85
2022/10/12 00:21:35;;;;;;;84.42;51.28;;;;;;;8.04;79.23;98125.89;1737946;81;25688;-86
2022/10/12 00:24:02;;;;;;;80.72;50.05;;;;;;;8.05;79.15;98128.41;1733534;81;25776;-85
2022/10/12 00:26:29;;;;;;;78.37;48.95;;;;;;;8.03;79.07;98118.84;1758205;81;27394;-86
2022/10/12 00:28:59;;;;;;;80.05;49.27;;;;;;;8.00;79.05;98127.25;1734746;81;25296;-86
2022/10/12 00:31:27;;;;;;;75.92;49.38;;;;;;;7.98;79.09;98128.77;1756572;81;25490;-84
2022/10/12 00:33:54;;;;;;;77.47;48.08;;;;;;;7.98;79.11;98126.08;1746078;81;26306;-85
2022/10/12 00:36:28;;;;;;;72.65;47.55;;;;;;;7.99;79.13;98125.06;1741203;81;25802;-85
2022/10/12 00:38:55;;;;;;;73.20;47.40;;;;;;;7.99;79.14;98123.72;1758044;81;27580;-86
2022/10/12 00:41:26;;;;;;;74.92;49.03;;;;;;;7.98;79.17;98126.08;1757835;81;26432;-86
2022/10/12 00:43:54;;;;;;;92.35;47.67;;;;;;;7.98;79.16;98123.39;1755753;81;25814;-86
2022/10/12 00:46:36;;;;;;;76.82;48.02;;;;;;;7.97;79.17;98120.38;1757959;81;25723;-85
2022/10/12 00:49:24;;;;;;;74.77;48.92;;;;;;;7.95;79.18;98121.08;1757655;81;25717;-85
2022/10/12 00:51:55;;;;;;;79.32;47.83;;;;;;;7.93;79.31;98116.38;1757985;81;27420;-86
2022/10/12 00:54:26;;;;;;;80.60;48.20;;;;;;;7.91;79.28;98123.28;1752890;81;25851;-85
2022/10/12 00:56:55;;;;;;;75.42;47.95;;;;;;;7.89;79.40;98122.61;1742396;81;25772;-86
2022/10/12 00:59:27;;;;;;;72.50;47.90;;;;;;;7.89;79.31;98121.77;1738615;81;26288;-86
2022/10/12 01:01:55;;;;;;;76.35;47.43;;;;;;;7.88;79.29;98121.44;1749648;81;25536;-86
2022/10/12 01:04:23;;;;;;;74.20;46.45;;;;;;;7.86;79.30;98122.12;1752287;80;27423;-85
2022/10/12 01:06:51;;;;;;;66.37;44.77;;;;;;;7.83;79.34;98117.13;1765266;80;25787;-86
2022/10/12 01:09:19;;;;;;;78.22;45.15;;;;;;;7.84;79.39;98120.14;1749910;79;25766;-86
2022/10/12 01:11:46;;;;;;;74.03;43.95;;;;;;;7.83;79.34;98117.13;1738614;81;25847;-85
2022/10/12 01:14:12;;;;;;;76.80;41.30;;;;;;;7.80;79.33;98116.96;1762493;80;25763;-86
2022/10/12 01:17:26;;;;;;;72.30;43.15;;;;;;;7.77;79.36;98120.50;1764430;80;27457;-87
2022/10/12 01:20:21;;;;;;;72.97;42.45;;;;;;;7.74;79.40;98119.50;1755077;81;25862;-87
2022/10/12 01:23:08;;;;;;;75.42;40.10;;;;;;;7.72;79.48;98120.21;1734994;81;25678;-87
2022/10/12 01:25:42;;;;;;;93.75;40.10;;;;;;;7.69;79.50;98121.89;1743023;81;25928;-86
2022/10/12 01:28:32;;;;;;;65.95;39.03;;;;;;;7.65;79.55;98122.74;1762018;80;25255;-85
2022/10/12 01:31:07;;;;;;;76.42;39.18;;;;;;;7.63;79.52;98126.11;1745119;80;27470;-87
2022/10/12 01:33:42;;;;;;;74.50;38.88;;;;;;;7.57;79.49;98124.97;1742235;80;25780;-86
2022/10/12 01:36:32;;;;;;;68.83;39.40;;;;;;;7.54;79.53;98127.16;1734622;80;25795;-85
2022/10/12 01:39:21;;;;;;;73.90;41.85;;;;;;;7.51;79.58;98128.34;1757069;80;25797;-87
2022/10/12 01:41:55;;;;;;;88.82;39.58;;;;;;;7.50;79.65;98129.35;1752921;80;25753;-86
2022/10/12 01:44:24;;;;;;;65.15;39.67;;;;;;;7.48;79.68;98120.66;1765391;80;28231;-85
2022/10/12 01:46:53;;;;;;;58.85;39.20;;;;;;;7.47;79.79;98127.04;1765279;79;25681;-85
2022/10/12 01:49:27;;;;;;;82.27;41.35;;;;;;;7.48;79.83;98127.38;1765318;81;25744;-86
2022/10/12 01:52:36;;;;;;;71.75;41.80;;;;;;;7.48;79.81;98128.72;1765481;81;25749;-85
2022/10/12 01:55:17;;;;;;;62.73;38.80;;;;;;;7.47;79.79;98131.57;1764819;80;25299;-87
2022/10/12 01:58:07;;;;;;;71.35;38.00;;;;;;;7.44;79.84;98127.38;1765074;80;27373;-86
2022/10/12 02:00:45;;;;;;;72.45;39.00;;;;;;;7.42;79.90;98126.70;1746988;81;25703;-85
2022/10/12 02:03:34;;;;;;;83.87;38.92;;;;;;;7.42;79.92;98129.91;1744830;80;25729;-84
2022/10/12 02:06:06;;;;;;;94.10;38.35;;;;;;;7.38;79.94;98126.72;1748882;81;26421;-87
2022/10/12 02:08:59;;;;;;;72.45;37.20;;;;;;;7.37;80.07;98125.54;1746319;81;25864;-86
2022/10/12 02:11:27;;;;;;;63.42;38.05;;;;;;;7.35;80.10;98132.45;1711963;81;27383;-85
2022/10/12 02:14:08;;;;;;;56.95;36.58;;;;;;;7.31;80.20;98129.78;1711395;82;25831;-86
2022/10/12 02:16:41;;;;;;;60.20;36.17;;;;;;;7.29;80.28;98134.48;1744544;81;25814;-86
2022/10/12 02:19:12;;;;;;;57.73;34.38;;;;;;;7.29;80.25;98130.45;1743477;81;25745;-85
2022/10/12 02:21:40;;;;;;;52.53;32.25;;;;;;;7.27;80.17;98123.06;1732006;81;25905;-86
2022/10/12 02:24:09;;;;;;;56.73;35.43;;;;;;;7.26;80.14;98126.76;1750046;81;28057;-84
2022/10/12 02:26:39;;;;;;;56.35;34.88;;;;;;;7.25;80.15;98129.11;1720211;81;25676;-85
2022/10/12 02:29:11;;;;;;;53.08;34.15;;;;;;;7.26;80.19;98128.60;1723241;81;25839;-84
2022/10/12 02:31:55;;;;;;;52.55;32.40;;;;;;;7.27;80.20;98130.28;1731307;81;25767;-84
2022/10/12 02:34:39;;;;;;;45.28;31.10;;;;;;;7.28;80.17;98135.98;1699323;81;25748;-85
2022/10/12 02:37:33;;;;;;;46.60;31.23;;;;;;;7.25;80.18;98138.50;1744366;81;27550;-84
2022/10/12 02:40:17;;;;;;;48.65;30.90;;;;;;;7.25;80.11;98138.50;1731846;81;25785;-84
2022/10/12 02:42:54;;;;;;;42.43;29.95;;;;;;;7.23;80.12;98133.84;1736653;81;26197;-84
2022/10/12 02:45:24;;;;;;;45.00;31.05;;;;;;;7.22;80.13;98138.38;1750053;81;25735;-84
2022/10/12 02:47:54;;;;;;;43.85;29.23;;;;;;;7.24;80.16;98142.23;1749917;81;25701;-84
2022/10/12 02:50:23;;;;;;;50.65;27.95;;;;;;;7.23;80.11;98145.92;1721679;81;28293;-84
2022/10/12 02:52:51;;;;;;;46.88;27.73;;;;;;;7.22;80.06;98142.91;1727852;81;25779;-85
2022/10/12 02:55:18;;;;;;;43.20;27.55;;;;;;;7.19;80.00;98139.21;1702580;82;25861;-84
2022/10/12 02:57:45;;;;;;;44.03;27.70;;;;;;;7.17;80.03;98144.75;1711178;81;25751;-86
2022/10/12 03:00:13;;;;;;;38.23;27.42;;;;;;;7.17;80.03;98144.75;1737046;81;25734;-84
2022/10/12 03:02:39;;;;;;;40.75;27.87;;;;;;;7.14;79.98;98146.93;1721479;81;27337;-84
2022/10/12 03:05:06;;;;;;;40.30;27.93;;;;;;;7.13;80.01;98142.56;1755402;81;25790;-84
2022/10/12 03:07:33;;;;;;;40.55;29.12;;;;;;;7.13;79.97;98144.75;1758089;81;26407;-87
2022/10/12 03:09:59;;;;;;;49.13;29.05;;;;;;;7.12;80.05;98145.79;1757455;81;26461;-84
2022/10/12 03:12:26;;;;;;;43.63;28.05;;;;;;;7.12;80.01;98144.95;1756454;81;25726;-85
2022/10/12 03:14:53;;;;;;;47.08;29.35;;;;;;;7.06;80.06;98146.45;1757770;81;27344;-84
2022/10/12 03:17:19;;;;;;;39.53;28.50;;;;;;;7.04;80.19;98147.13;1756080;81;25261;-84
2022/10/12 03:19:46;;;;;;;43.63;28.20;;;;;;;7.04;80.22;98141.76;1758081;81;25770;-84
2022/10/12 03:22:12;;;;;;;43.00;27.70;;;;;;;7.05;80.20;98141.25;1758297;81;25750;-85
2022/10/12 03:24:39;;;;;;;43.85;27.17;;;;;;;7.03;80.24;98139.24;1755918;81;26237;-85
2022/10/12 03:27:06;;;;;;;39.53;26.93;;;;;;;7.00;80.28;98136.92;1757243;81;27352;-87
2022/10/12 03:29:32;;;;;;;44.60;27.98;;;;;;;6.97;80.28;98137.25;1756457;81;26455;-85
2022/10/12 03:31:59;;;;;;;41.42;27.62;;;;;;;6.91;80.23;98136.58;1758129;81;25681;-83
2022/10/12 03:34:25;;;;;;;49.23;27.50;;;;;;;6.92;80.34;98140.95;1758110;80;25832;-84
2022/10/12 03:36:52;;;;;;;38.25;27.60;;;;;;;6.93;80.32;98133.23;1755813;81;25663;-84
2022/10/12 03:39:18;;;;;;;43.73;28.70;;;;;;;6.92;80.24;98134.23;1756986;81;27338;-84
2022/10/12 03:41:45;;;;;;;37.78;27.27;;;;;;;6.90;80.19;98142.45;1757012;81;25796;-84
2022/10/12 03:44:11;;;;;;;47.15;28.42;;;;;;;6.86;80.19;98139.29;1757763;81;25248;-85
2022/10/12 03:46:38;;;;;;;38.78;26.90;;;;;;;6.80;80.31;98142.64;1758011;81;25729;-84
2022/10/12 03:49:04;;;;;;;46.35;28.47;;;;;;;6.77;80.40;98134.92;1758068;81;25734;-84
2022/10/12 03:51:31;;;;;;;41.10;27.98;;;;;;;6.79;80.51;98134.75;1758244;81;27451;-83
2022/10/12 03:53:57;;;;;;;41.33;28.55;;;;;;;6.80;80.63;98135.93;1757914;81;25701;-86
2022/10/12 03:56:24;;;;;;;42.25;28.35;;;;;;;6.83;80.69;98139.63;1756100;81;25789;-84
2022/10/12 03:58:51;;;;;;;37.95;27.10;;;;;;;6.85;80.65;98137.61;1758107;81;26631;-83
2022/10/12 04:01:17;;;;;;;41.18;26.68;;;;;;;6.86;80.57;98141.98;1757207;81;25770;-86
2022/10/12 04:03:44;;;;;;;42.43;27.55;;;;;;;6.88;80.61;98138.28;1762359;80;27521;-85
2022/10/12 04:06:10;;;;;;;37.30;25.52;;;;;;;6.89;80.60;98144.80;1758113;80;25757;-84
2022/10/12 04:08:37;;;;;;;36.20;25.70;;;;;;;6.88;80.53;98143.66;1763125;80;25844;-84
2022/10/12 04:11:04;;;;;;;31.77;24.10;;;;;;;6.84;80.49;98139.96;1766833;80;26067;-84
2022/10/12 04:13:31;;;;;;;32.60;25.37;;;;;;;6.84;80.44;98134.59;1771545;80;25725;-84
2022/10/12 04:16:03;;;;;;;34.40;25.10;;;;;;;6.82;80.46;98134.42;1771680;80;27394;-85
2022/10/12 04:18:29;;;;;;;;;;;;;;;6.79;80.41;98138.28;1774239;80;26588;-85
2022/10/12 04:20:56;;;;;;;34.08;23.52;;;;;;;6.77;80.59;98138.95;1771857;80;26004;-85
2022/10/12 04:23:23;;;;;;;32.20;23.60;;;;;;;6.79;80.55;98138.78;1771524;80;25800;-85
2022/10/12 04:25:49;;;;;;;33.48;24.02;;;;;;;6.79;80.39;98138.28;1771652;80;25822;-84
2022/10/12 04:28:16;;;;;;;34.67;24.32;;;;;;;6.79;80.35;98138.28;1769175;80;27371;-86
2022/10/12 04:30:44;;;;;;;30.00;22.50;;;;;;;6.79;80.33;98144.98;1747346;80;25726;-84
2022/10/12 04:33:11;;;;;;;33.80;24.55;;;;;;;6.76;80.25;98139.95;1742593;80;25756;-85
2022/10/12 04:35:38;;;;;;;37.53;24.67;;;;;;;6.73;80.22;98144.34;1760752;80;25748;-85
2022/10/12 04:38:04;;;;;;;30.65;23.10;;;;;;;6.72;80.25;98152.05;1741188;80;25282;-84
2022/10/12 04:40:31;;;;;;;31.75;23.22;;;;;;;6.69;80.30;98144.33;1749372;80;27354;-86
2022/10/12 04:42:57;;;;;;;37.85;24.50;;;;;;;6.68;80.31;98149.36;1754045;80;25679;-84
2022/10/12 04:45:24;;;;;;;31.33;23.83;;;;;;;6.64;80.36;98152.03;1762609;80;25740;-84
2022/10/12 04:47:51;;;;;;;34.95;24.85;;;;;;;6.63;80.32;98154.41;1756109;80;25765;-85
2022/10/12 04:50:17;;;;;;;29.07;23.65;;;;;;;6.62;80.39;98155.41;1768808;80;26256;-84
2022/10/12 04:52:44;;;;;;;30.30;23.05;;;;;;;6.62;80.44;98162.63;1758592;80;28365;-85
2022/10/12 04:55:10;;;;;;;31.42;21.85;;;;;;;6.62;80.42;98162.63;1759249;80;26326;-84
2022/10/12 04:57:37;;;;;;;30.23;22.58;;;;;;;6.61;80.34;98163.13;1752285;80;25696;-85
2022/10/12 05:00:07;;;;;;;30.10;21.82;;;;;;;6.60;80.35;98164.63;1730497;82;46182;-85
2022/10/12 05:02:33;;;;;;;39.23;23.30;;;;;;;6.61;80.32;98160.95;1752984;80;25750;-85
2022/10/12 05:05:00;;;;;;;31.68;22.55;;;;;;;6.61;80.30;98168.48;1765045;80;27378;-85
2022/10/12 05:07:27;;;;;;;38.60;22.45;;;;;;;6.58;80.27;98160.77;1764105;81;25750;-85
2022/10/12 05:09:53;;;;;;;31.42;20.88;;;;;;;6.55;80.22;98161.09;1765320;81;25815;-86
2022/10/12 05:12:20;;;;;;;44.48;22.13;;;;;;;6.50;80.18;98164.30;1765483;80;25827;-85
2022/10/12 05:14:46;;;;;;;32.38;21.62;;;;;;;6.46;80.10;98162.95;1765289;79;26315;-85
2022/10/12 05:17:13;;;;;;;32.58;19.70;;;;;;;6.43;80.02;98161.09;1765225;80;28250;-85
2022/10/12 05:19:40;;;;;;;39.25;21.52;;;;;;;6.39;80.04;98160.61;1765151;80;26019;-84
2022/10/12 05:22:06;;;;;;;27.82;20.32;;;;;;;6.37;80.00;98161.77;1765397;80;25760;-85
2022/10/12 05:24:33;;;;;;;28.05;20.62;;;;;;;6.34;80.08;98167.47;1765317;80;25777;-85
2022/10/12 05:27:01;;;;;;;32.20;20.90;;;;;;;6.34;80.09;98166.96;1765066;81;25881;-85
2022/10/12 05:29:28;;;;;;;28.32;19.85;;;;;;;6.32;80.06;98170.80;1744425;80;27603;-84
2022/10/12 05:31:54;;;;;;;32.35;20.15;;;;;;;6.29;80.07;98172.47;1762833;80;25885;-85
2022/10/12 05:34:21;;;;;;;31.50;20.45;;;;;;;6.25;80.04;98168.47;1747392;80;25734;-85
2022/10/12 05:36:47;;;;;;;29.57;20.10;;;;;;;6.23;79.96;98173.15;1759941;80;25737;-85
2022/10/12 05:39:14;;;;;;;30.85;18.67;;;;;;;6.19;79.98;98173.13;1765494;80;25655;-84
2022/10/12 05:41:40;;;;;;;26.65;19.37;;;;;;;6.14;80.01;98175.83;1741458;80;27539;-84
2022/10/12 05:44:07;;;;;;;22.50;17.57;;;;;;;6.06;79.98;98181.15;1764146;80;25776;-85
2022/10/12 05:46:34;;;;;;;28.12;19.32;;;;;;;6.01;80.13;98176.80;1761814;81;25728;-84
2022/10/12 05:49:00;;;;;;;25.90;17.90;;;;;;;6.00;80.19;98175.62;1735723;80;25802;-84
2022/10/12 05:51:27;;;;;;;23.22;18.00;;;;;;;5.96;80.15;98172.42;1752394;80;25636;-85
2022/10/12 05:53:53;;;;;;;27.27;16.73;;;;;;;5.97;80.15;98170.58;1743868;80;27285;-84
2022/10/12 05:56:20;;;;;;;23.52;17.05;;;;;;;5.97;80.10;98171.42;1765374;80;25757;-85
2022/10/12 05:58:47;;;;;;;24.65;16.82;;;;;;;5.94;79.99;98171.73;1765208;80;25720;-85
2022/10/12 06:01:13;;;;;;;23.67;16.62;;;;;;;5.92;80.02;98173.73;1758431;79;25741;-85
2022/10/12 06:03:40;;;;;;;22.37;17.77;;;;;;;5.85;80.01;98174.03;1761976;80;25728;-83
2022/10/12 06:06:07;;;;;;;21.87;16.95;;;;;;;5.86;80.06;98178.89;1750103;81;28478;-84
2022/10/12 06:08:34;;;;;;;21.02;16.65;;;;;;;5.89;80.04;98175.92;1730298;81;25941;-84
2022/10/12 06:11:01;;;;;;;27.70;16.93;;;;;;;5.88;80.08;98179.11;1724489;81;25715;-85
2022/10/12 06:13:28;;;;;;;28.60;16.32;;;;;;;5.86;79.90;98181.07;1749993;81;25663;-85
2022/10/12 06:15:54;;;;;;;27.07;17.02;;;;;;;5.84;79.92;98186.25;1750145;81;25708;-84
2022/10/12 06:18:21;;;;;;;26.12;16.25;;;;;;;5.79;79.94;98181.40;1712212;81;27362;-84
2022/10/12 06:20:51;;;;;;;24.32;15.88;;;;;;;5.75;79.97;98186.23;1742000;81;25759;-84
2022/10/12 06:23:19;;;;;;;29.75;16.80;;;;;;;5.76;80.03;98189.75;1746693;81;25769;-83
2022/10/12 06:25:50;;;;;;;29.63;19.40;;;;;;;5.78;80.19;98187.75;1717087;81;25724;-84
2022/10/12 06:28:19;;;;;;;29.25;18.85;;;;;;;5.84;80.27;98194.28;1727150;81;25907;-84
2022/10/12 06:30:48;;;;;;;23.90;17.75;;;;;;;5.89;80.12;98194.69;1732049;81;27389;-84
2022/10/12 06:33:14;;;;;;;24.35;16.52;;;;;;;5.88;79.94;98185.80;1741624;81;25726;-85
2022/10/12 06:35:41;;;;;;;24.27;16.48;;;;;;;5.91;79.91;98194.03;1713915;81;25299;-84
2022/10/12 06:38:08;;;;;;;28.55;18.37;;;;;;;5.93;79.96;98187.98;1711820;82;25850;-83
2022/10/12 06:40:34;;;;;;;24.32;18.65;;;;;;;5.94;80.08;98193.17;1749836;81;26283;-85
2022/10/12 06:43:01;;;;;;;20.48;16.42;;;;;;;5.98;80.07;98189.68;1721689;81;27197;-85
2022/10/12 06:45:29;;;;;;;32.83;18.35;;;;;;;6.00;80.19;98195.22;1732906;81;26033;-86
2022/10/12 06:47:57;;;;;;;25.23;17.05;;;;;;;6.04;80.13;98195.71;1749939;81;25232;-86
2022/10/12 06:50:25;;;;;;;23.55;17.12;;;;;;;6.04;80.03;98193.88;1730973;81;26422;-84
2022/10/12 06:52:52;;;;;;;26.40;18.42;;;;;;;6.06;79.96;98193.21;1715908;81;25744;-84
2022/10/12 06:55:19;;;;;;;24.02;17.27;;;;;;;6.08;79.93;98194.39;1711381;81;27381;-85
2022/10/12 06:57:45;;;;;;;22.50;17.52;;;;;;;6.09;79.96;98198.25;1738874;81;25313;-85
2022/10/12 07:00:13;;;;;;;24.20;17.15;;;;;;;6.14;79.82;98189.73;1750211;81;25760;-86
2022/10/12 07:02:40;;;;;;;21.07;16.62;;;;;;;6.17;79.73;98192.05;1713082;81;25897;-86
2022/10/12 07:05:07;;;;;;;22.37;16.27;;;;;;;6.21;79.69;98197.94;1749973;81;25776;-85
2022/10/12 07:07:35;;;;;;;24.60;18.00;;;;;;;6.22;79.64;98195.59;1737384;81;28126;-83
2022/10/12 07:10:05;;;;;;;21.48;16.42;;;;;;;6.23;79.69;98202.64;1737886;81;25890;-83
2022/10/12 07:12:32;;;;;;;23.95;16.00;;;;;;;6.25;79.58;98195.27;1750214;81;25679;-84
2022/10/12 07:14:59;;;;;;;19.17;15.95;;;;;;;6.28;79.59;98193.08;1712175;81;25712;-85
2022/10/12 07:17:25;;;;;;;22.50;16.15;;;;;;;6.28;79.42;98198.44;1742357;81;25213;-85
2022/10/12 07:19:52;;;;;;;21.07;16.65;;;;;;;6.26;79.38;98197.80;1734466;81;27419;-84
2022/10/12 07:22:18;;;;;;;22.22;15.75;;;;;;;6.27;79.38;98198.64;1732888;81;25743;-85
2022/10/12 07:24:45;;;;;;;22.90;15.58;;;;;;;6.30;79.43;98196.94;1738321;81;26330;-85
2022/10/12 07:27:12;;;;;;;20.65;15.30;;;;;;;6.33;79.30;98189.41;1739792;81;25753;-84
2022/10/12 07:29:39;;;;;;;20.88;15.78;;;;;;;6.32;79.21;98185.55;1725977;81;25655;-84
2022/10/12 07:32:06;;;;;;;22.82;16.15;;;;;;;6.32;79.30;98190.91;1733769;81;27236;-87
2022/10/12 07:34:33;;;;;;;24.47;16.32;;;;;;;6.36;79.47;98193.61;1742683;81;25690;-84
2022/10/12 07:37:00;;;;;;;22.05;16.45;;;;;;;6.44;79.68;98185.56;1744444;81;25731;-84
2022/10/12 07:39:27;;;;;;;23.83;16.52;;;;;;;6.51;79.67;98182.58;1750036;81;25767;-85
2022/10/12 07:41:54;;;;;;;23.07;17.42;;;;;;;6.56;79.76;98179.37;1746303;81;25707;-85
2022/10/12 07:44:23;;;;;;;20.82;16.32;;;;;;;6.62;79.80;98176.03;1740133;81;27224;-85
2022/10/12 07:46:50;;;;;;;20.25;16.48;;;;;;;6.67;79.69;98170.98;1716788;81;25914;-87
2022/10/12 07:49:16;;;;;;;19.57;15.50;;;;;;;6.72;79.65;98169.99;1744581;81;25788;-84
2022/10/12 07:51:45;;;;;;;21.33;16.10;;;;;;;6.77;79.55;98164.44;1712245;82;25684;-84
2022/10/12 07:54:12;;;;;;;22.22;16.95;;;;;;;6.88;79.59;98170.49;1737392;81;26053;-85
2022/10/12 07:56:38;;;;;;;23.50;18.75;;;;;;;6.98;79.77;98169.30;1739407;81;27046;-84
2022/10/12 07:59:05;;;;;;;26.30;19.50;;;;;;;7.05;79.73;98165.41;1735694;81;25776;-83
2022/10/12 08:01:33;;;;;;;27.32;20.27;;;;;;;7.10;79.65;98161.73;1726094;81;25783;-85
2022/10/12 08:04:01;;;;;;;24.82;19.42;;;;;;;7.19;79.62;98166.06;1721815;81;25698;-84
2022/10/12 08:06:31;;;;;;;26.80;19.00;;;;;;;7.21;79.21;98162.20;1757264;80;25756;-84
2022/10/12 08:09:00;;;;;;;23.67;18.62;;;;;;;7.20;79.23;98160.52;1758312;81;28255;-85
2022/10/12 08:11:27;;;;;;;25.27;17.12;;;;;;;7.22;79.00;98154.98;1757998;81;25695;-87
2022/10/12 08:13:54;;;;;;;21.93;17.30;;;;;;;7.20;79.06;98159.69;1758227;81;25807;-86
2022/10/12 08:16:22;;;;;;;21.52;16.77;;;;;;;7.24;79.31;98163.72;1737118;81;25725;-86
2022/10/12 08:18:49;;;;;;;21.10;14.95;;;;;;;7.33;79.53;98155.95;1758300;81;25939;-87
2022/10/12 08:21:17;;;;;;;20.43;16.10;;;;;;;7.35;79.39;98157.97;1756616;81;27343;-87
2022/10/12 08:23:44;;;;;;;20.70;15.50;;;;;;;7.40;79.43;98162.30;1776278;79;25694;-87
2022/10/12 08:26:13;;;;;;;19.80;16.10;;;;;;;7.44;79.20;98160.95;1786085;79;25752;-87
2022/10/12 08:28:40;;;;;;;19.20;14.53;;;;;;;7.61;79.44;98154.19;1784840;79;26518;-84
2022/10/12 08:31:12;;;;;;;19.25;16.15;;;;;;;7.88;79.53;98156.38;1807488;79;25753;-86
2022/10/12 08:33:39;;;;;;;21.27;15.28;;;;;;;8.13;79.72;98156.58;1799660;79;28232;-86
2022/10/12 08:36:07;;;;;;;19.32;14.65;;;;;;;8.34;79.48;98149.74;1792901;79;25959;-86
2022/10/12 08:38:37;;;;;;;18.02;14.15;;;;;;;8.55;78.93;98147.25;1784970;79;25773;-87
2022/10/12 08:41:24;;;;;;;20.08;15.80;;;;;;;8.80;78.94;98148.72;1807702;79;25732;-87
2022/10/12 08:44:17;;;;;;;18.75;14.78;;;;;;;9.02;78.76;98141.61;1800044;79;25774;-86
2022/10/12 08:46:44;;;;;;;17.75;14.18;;;;;;;9.29;78.57;98145.53;1755352;80;27392;-85
2022/10/12 08:49:22;;;;;;;16.48;13.60;;;;;;;9.66;78.12;98133.81;1772174;80;25760;-86
2022/10/12 08:51:52;;;;;;;17.65;13.58;;;;;;;9.95;77.63;98135.09;1762027;80;25762;-86
2022/10/12 08:54:29;;;;;;;15.45;13.35;;;;;;;10.24;77.29;98128.82;1761048;79;25794;-86
2022/10/12 08:56:57;;;;;;;20.10;14.63;;;;;;;10.45;76.71;98133.37;1770943;80;25758;-86
2022/10/12 08:59:25;;;;;;;16.10;14.40;;;;;;;10.73;76.81;98137.48;1756986;80;27362;-84
2022/10/12 09:02:15;;;;;;;18.12;14.30;;;;;;;11.03;76.49;98136.27;1775589;80;25753;-85
2022/10/12 09:05:02;;;;;;;16.85;13.75;;;;;;;11.29;76.32;98134.78;1750154;79;25797;-85
2022/10/12 09:07:43;;;;;;;18.73;12.75;;;;;;;11.47;75.55;98131.06;1773997;78;26460;-84
2022/10/12 09:10:44;;;;;;;16.30;13.50;;;;;;;11.61;75.27;98130.08;1769804;78;26190;-87
2022/10/12 09:13:57;;;;;;;17.80;14.13;;;;;;;11.69;74.56;98132.63;1788066;78;27447;-86
2022/10/12 09:16:28;;;;;;;14.83;13.18;;;;;;;11.64;74.44;98124.27;1780732;78;32507;-86
2022/10/12 09:18:58;;;;;;;19.48;13.85;;;;;;;11.74;74.33;98120.67;1796344;78;25709;-85
2022/10/12 09:21:28;;;;;;;15.15;13.38;;;;;;;11.69;73.65;98120.47;1785986;78;25718;-86
2022/10/12 09:23:56;;;;;;;17.42;12.47;;;;;;;11.75;73.76;98123.73;1802716;78;25240;-84
2022/10/12 09:26:36;;;;;;;16.52;12.98;;;;;;;11.81;73.68;98120.75;1778294;78;27508;-86
2022/10/12 09:29:22;;;;;;;15.35;12.40;;;;;;;11.90;73.85;98112.25;1804900;78;25239;-87
2022/10/12 09:32:03;;;;;;;20.02;13.43;;;;;;;12.05;73.69;98115.33;1744855;81;25837;-86
2022/10/12 09:34:29;;;;;;;14.73;12.82;;;;;;;12.13;73.42;98118.67;1758141;80;26482;-86
2022/10/12 09:36:56;;;;;;;16.90;11.85;;;;;;;12.23;73.22;98113.70;1759284;80;25686;-84
2022/10/12 09:39:27;;;;;;;14.43;12.05;;;;;;;12.41;73.47;98107.71;1773111;80;27387;-86
2022/10/12 09:41:55;;;;;;;20.05;14.13;;;;;;;12.65;73.16;98106.80;1757587;80;25650;-85
2022/10/12 09:44:44;;;;;;;19.27;13.72;;;;;;;12.85;73.38;98106.27;1752888;80;26292;-86
2022/10/12 09:47:32;;;;;;;15.68;11.50;;;;;;;13.05;73.15;98100.31;1762931;81;26513;-86
2022/10/12 09:50:04;;;;;;;20.12;12.75;;;;;;;13.25;72.51;98107.11;1746455;80;26293;-84
2022/10/12 09:52:42;;;;;;;16.35;11.70;;;;;;;13.46;72.02;98097.88;1747274;80;27430;-85
2022/10/12 09:55:24;;;;;;;13.18;10.20;;;;;;;13.65;71.66;98101.04;1736995;81;25810;-86
2022/10/12 09:57:58;;;;;;;17.95;10.08;;;;;;;13.81;71.17;98096.50;1735967;80;26343;-87
2022/10/12 10:00:29;;;;;;;13.15;8.95;;;;;;;13.99;70.75;98098.00;1744611;80;25741;-87
2022/10/12 10:02:57;;;;;;;16.55;8.80;;;;;;;14.15;70.30;98089.02;1740106;80;25769;-83
2022/10/12 10:05:31;;;;;;;12.30;8.20;;;;;;;14.24;69.97;98090.45;1750911;80;27233;-87
2022/10/12 10:08:20;;;;;;;13.58;7.67;;;;;;;14.28;69.11;98091.66;1738930;81;25690;-85
2022/10/12 10:10:53;;;;;;;13.70;8.58;;;;;;;14.35;69.22;98085.69;1746301;81;25745;-83
2022/10/12 10:13:25;;;;;;;11.55;6.20;;;;;;;14.50;68.77;98088.09;1743342;81;25673;-81
2022/10/12 10:16:05;;;;;;;11.05;4.58;;;;;;;14.66;68.45;98088.41;1758278;81;26357;-85
2022/10/12 10:18:41;;;;;;;9.65;5.17;;;;;;;14.77;67.22;98080.89;1758141;81;28185;-88
2022/10/12 10:21:16;;;;;;;9.28;4.85;;;;;;;14.86;66.97;98087.41;1757455;81;26378;-87
2022/10/12 10:23:50;;;;;;;10.75;4.72;;;;;;;14.88;66.14;98082.05;1714823;81;25733;-86
2022/10/12 10:26:21;;;;;;;8.75;5.08;;;;;;;14.90;66.05;98079.95;1757990;81;26513;-86
2022/10/12 10:28:52;;;;;;;16.23;4.62;;;;;;;14.95;66.20;98084.20;1758085;81;25859;-82
2022/10/12 10:31:24;;;;;;;6.92;4.55;;;;;;;15.11;65.72;98082.26;1740800;81;27427;-87
2022/10/12 10:34:18;;;;;;;;;;;;;;;15.24;65.29;98081.30;1758093;81;25791;-86
2022/10/12 10:36:50;;;;;;;10.72;4.53;;;;;;;15.28;63.42;98074.37;1757058;81;25715;-85
2022/10/12 10:39:46;;;;;;;9.08;4.60;;;;;;;15.43;64.50;98074.01;1758207;81;25797;-86
2022/10/12 10:42:21;;;;;;;8.00;4.10;;;;;;;15.60;64.33;98072.89;1757165;81;25759;-83
2022/10/12 10:44:52;;;;;;;9.85;4.95;;;;;;;15.76;63.83;98068.20;1755688;81;27372;-87
2022/10/12 10:47:18;;;;;;;12.43;5.85;;;;;;;15.84;63.11;98069.24;1757239;81;25756;-84
2022/10/12 10:49:56;;;;;;;9.65;4.95;;;;;;;15.94;63.12;98068.16;1755752;81;25678;-85
2022/10/12 10:52:32;;;;;;;17.00;5.05;;;;;;;16.08;63.17;98064.21;1756807;81;25755;-89
2022/10/12 10:55:21;;;;;;;9.83;4.33;;;;;;;16.25;62.88;98058.13;1757655;81;25773;-86
2022/10/12 10:58:08;;;;;;;10.40;4.40;;;;;;;16.36;62.06;98055.44;1741879;81;27373;-87
2022/10/12 11:00:38;;;;;;;7.10;3.50;;;;;;;16.52;61.52;98056.67;1754582;81;25713;-87
2022/10/12 11:03:15;;;;;;;11.20;4.10;;;;;;;16.66;61.19;98054.61;1755934;81;25246;-86
2022/10/12 11:05:59;;;;;;;8.93;3.52;;;;;;;16.84;61.27;98053.97;1757789;80;26289;-88
2022/10/12 11:08:32;;;;;;;7.47;3.95;;;;;;;17.00;60.41;98052.98;1762519;81;25650;-87
2022/10/12 11:11:10;;;;;;;7.97;3.45;;;;;;;17.05;60.03;98053.08;1765784;81;28390;-86
2022/10/12 11:13:45;;;;;;;10.35;4.05;;;;;;;17.15;59.91;98051.95;1765675;81;25824;-88
2022/10/12 11:16:58;;;;;;;8.83;3.95;;;;;;;17.25;58.71;98050.84;1764590;81;25759;-85
2022/10/12 11:19:41;;;;;;;9.35;3.85;;;;;;;17.28;58.76;98045.72;1765636;81;25680;-88
2022/10/12 11:22:21;;;;;;;8.88;3.95;;;;;;;17.35;57.94;98049.70;1716603;82;25809;-87
2022/10/12 11:25:08;;;;;;;8.48;3.77;;;;;;;17.35;57.83;98040.69;1759520;81;27495;-86
2022/10/12 11:27:39;;;;;;;7.95;3.62;;;;;;;17.39;57.58;98044.04;1764460;81;25768;-89
2022/10/12 11:30:19;;;;;;;9.60;3.92;;;;;;;17.72;57.42;98038.51;1741366;81;25776;-88
2022/10/12 11:33:05;;;;;;;10.63;4.08;;;;;;;17.97;57.24;98043.13;1752912;81;25714;-88
2022/10/12 11:35:37;;;;;;;10.53;3.85;;;;;;;18.09;56.56;98038.45;1765755;81;25737;-88
2022/10/12 11:38:24;;;;;;;7.50;3.62;;;;;;;18.28;56.14;98039.89;1765346;81;27433;-84
2022/10/12 11:40:59;;;;;;;6.28;3.12;;;;;;;18.40;55.96;98032.99;1765737;81;25818;-87
2022/10/12 11:43:39;;;;;;;8.08;3.40;;;;;;;18.42;55.60;98031.38;1747660;81;25759;-87
2022/10/12 11:46:09;;;;;;;8.43;3.70;;;;;;;18.51;55.07;98031.27;1750625;81;25676;-88
2022/10/12 11:48:47;;;;;;;8.63;3.80;;;;;;;18.58;55.44;98027.88;1765279;80;26489;-89